createdAt,value
2023-01-04T00:02:02.011Z,3.00
2023-01-04T00:04:29.972Z,2.90
2023-01-04T00:06:58.100Z,2.90
2023-01-04T00:09:26.094Z,2.90
2023-01-04T00:11:53.980Z,2.80
2023-01-04T00:14:22.150Z,2.80
2023-01-04T00:16:50.118Z,2.80
2023-01-04T00:19:18.107Z,2.70
2023-01-04T00:21:46.349Z,2.70
2023-01-04T00:24:16.430Z,2.60
2023-01-04T00:26:45.197Z,2.60
2023-01-04T00:29:14.458Z,2.50
2023-01-04T00:31:42.684Z,2.50
2023-01-04T00:34:12.409Z,2.50
2023-01-04T00:36:40.692Z,2.40
2023-01-04T00:39:09.322Z,2.40
2023-01-04T00:42:00.068Z,2.40
2023-01-04T00:44:33.570Z,2.30
2023-01-04T00:47:03.348Z,2.30
2023-01-04T00:49:33.713Z,2.30
2023-01-04T00:52:01.977Z,2.20
2023-01-04T00:54:29.876Z,2.20
2023-01-04T00:56:58.710Z,2.10
2023-01-04T00:59:26.580Z,1.90
2023-01-04T01:01:55.273Z,1.80
2023-01-04T01:04:25.250Z,1.70
2023-01-04T01:06:53.839Z,1.70
2023-01-04T01:09:23.890Z,1.80
2023-01-04T01:11:53.372Z,1.90
2023-01-04T01:14:24.285Z,1.80
2023-01-04T01:16:55.918Z,1.90
2023-01-04T01:19:26.031Z,1.90
2023-01-04T01:21:53.944Z,1.90
2023-01-04T01:24:22.221Z,1.90
2023-01-04T01:26:50.235Z,1.90
2023-01-04T01:29:18.346Z,2.00
2023-01-04T01:31:46.405Z,2.00
2023-01-04T01:34:14.394Z,2.00
2023-01-04T01:36:42.452Z,2.00
2023-01-04T01:39:10.418Z,2.00
2023-01-04T01:41:38.323Z,1.90
2023-01-04T01:44:31.800Z,2.00
2023-01-04T01:46:59.901Z,2.00
2023-01-04T01:49:38.336Z,2.00
2023-01-04T01:52:15.410Z,2.00
2023-01-04T01:54:51.009Z,1.90
2023-01-04T01:57:23.872Z,1.80
2023-01-04T01:59:54.276Z,1.80
2023-01-04T02:02:22.974Z,1.70
2023-01-04T02:04:56.719Z,1.70
2023-01-04T02:07:29.129Z,1.60
2023-01-04T02:09:58.686Z,1.60
2023-01-04T02:12:27.006Z,1.60
2023-01-04T02:14:55.041Z,1.60
2023-01-04T02:17:46.053Z,1.60
2023-01-04T02:20:23.486Z,1.50
2023-01-04T02:23:23.716Z,1.60
2023-01-04T02:26:29.563Z,1.50
2023-01-04T02:29:28.367Z,1.60
2023-01-04T02:32:00.287Z,1.60
2023-01-04T02:34:37.557Z,1.60
2023-01-04T02:37:36.599Z,1.70
2023-01-04T02:40:20.878Z,1.70
2023-01-04T02:43:17.923Z,1.80
2023-01-04T02:46:05.589Z,1.90
2023-01-04T02:48:59.936Z,1.90
2023-01-04T02:51:31.461Z,2.00
2023-01-04T02:54:15.983Z,2.10
2023-01-04T02:57:05.686Z,2.10
2023-01-04T02:59:37.016Z,2.10
2023-01-04T03:02:57.654Z,2.10
2023-01-04T03:06:10.143Z,2.20
2023-01-04T03:08:53.292Z,2.20
2023-01-04T03:11:39.983Z,2.20
2023-01-04T03:14:31.680Z,2.20
2023-01-04T03:17:07.017Z,2.30
2023-01-04T03:19:55.398Z,2.30
2023-01-04T03:22:57.685Z,2.30
2023-01-04T03:26:03.997Z,2.30
2023-01-04T03:28:58.508Z,2.30
2023-01-04T03:32:06.725Z,2.40
2023-01-04T03:34:53.167Z,2.40
2023-01-04T03:37:43.751Z,2.50
2023-01-04T03:40:49.793Z,2.50
2023-01-04T03:43:41.346Z,2.50
2023-01-04T03:46:47.066Z,2.60
2023-01-04T03:49:22.824Z,2.60
2023-01-04T03:51:54.624Z,2.70
2023-01-04T03:54:32.697Z,2.70
2023-01-04T03:57:01.649Z,2.80
2023-01-04T03:59:30.040Z,2.90
2023-01-04T04:01:58.498Z,2.90
2023-01-04T04:04:44.847Z,3.00
2023-01-04T04:07:31.344Z,3.00
2023-01-04T04:09:59.267Z,3.10
2023-01-04T04:12:27.191Z,3.10
2023-01-04T04:14:55.123Z,3.20
2023-01-04T04:17:24.096Z,3.20
2023-01-04T04:19:52.044Z,3.20
2023-01-04T04:22:19.983Z,3.30
2023-01-04T04:24:48.291Z,3.30
2023-01-04T04:27:16.194Z,3.40
2023-01-04T04:29:46.722Z,3.40
2023-01-04T04:32:17.732Z,3.50
2023-01-04T04:34:45.700Z,3.50
2023-01-04T04:37:14.046Z,3.50
2023-01-04T04:39:42.064Z,3.50
2023-01-04T04:42:10.448Z,3.50
2023-01-04T04:44:38.403Z,3.60
2023-01-04T04:47:06.353Z,3.60
2023-01-04T04:49:35.123Z,3.60
2023-01-04T04:52:03.055Z,3.60
2023-01-04T04:54:31.003Z,3.60
2023-01-04T04:56:59.085Z,3.70
2023-01-04T04:59:27.178Z,3.70
2023-01-04T05:01:55.284Z,3.70
2023-01-04T05:04:23.313Z,3.70
2023-01-04T05:06:51.673Z,3.70
2023-01-04T05:09:19.943Z,3.80
2023-01-04T05:12:06.356Z,3.80
2023-01-04T05:14:34.333Z,3.80
2023-01-04T05:17:02.387Z,3.80
2023-01-04T05:19:30.427Z,3.80
2023-01-04T05:21:58.373Z,3.80
2023-01-04T05:24:26.302Z,3.80
2023-01-04T05:26:54.188Z,3.80
2023-01-04T05:29:40.886Z,3.80
2023-01-04T05:32:08.935Z,3.80
2023-01-04T05:34:37.029Z,3.80
2023-01-04T05:37:04.936Z,3.80
2023-01-04T05:39:32.862Z,3.80
2023-01-04T05:47:02.841Z,3.90
2023-01-04T05:49:33.674Z,3.90
2023-01-04T05:52:01.709Z,3.90
2023-01-04T06:00:00.841Z,3.90
2023-01-04T06:02:31.848Z,4.00
2023-01-04T06:05:01.412Z,4.00
2023-01-04T06:07:30.310Z,4.00
2023-01-04T06:09:58.726Z,4.00
2023-01-04T06:12:26.923Z,4.00
2023-01-04T06:14:54.874Z,4.00
2023-01-04T06:17:22.831Z,4.00
2023-01-04T06:19:51.042Z,4.10
2023-01-04T06:22:19.319Z,4.10
2023-01-04T06:24:48.174Z,4.10
2023-01-04T06:27:16.532Z,4.10
2023-01-04T06:29:44.628Z,4.10
2023-01-04T06:32:12.676Z,4.10
2023-01-04T06:34:40.711Z,4.10
2023-01-04T06:37:11.681Z,4.10
2023-01-04T06:39:43.102Z,4.10
2023-01-04T06:42:32.750Z,4.10
2023-01-04T06:45:00.941Z,4.10
2023-01-04T06:47:29.171Z,4.20
2023-01-04T06:49:57.336Z,4.20
2023-01-04T06:52:25.416Z,4.20
2023-01-04T06:54:53.480Z,4.20
2023-01-04T06:57:21.412Z,4.20
2023-01-04T06:59:49.453Z,4.30
2023-01-04T07:02:17.896Z,4.30
2023-01-04T07:04:46.266Z,4.30
2023-01-04T07:07:14.530Z,4.30
2023-01-04T07:09:42.619Z,4.30
2023-01-04T07:12:10.855Z,4.30
2023-01-04T07:14:38.892Z,4.30
2023-01-04T07:17:07.007Z,4.30
2023-01-04T07:19:35.055Z,4.40
2023-01-04T07:22:06.333Z,4.40
2023-01-04T07:24:34.489Z,4.40
2023-01-04T07:27:03.213Z,4.50
2023-01-04T07:29:31.257Z,4.50
2023-01-04T07:31:59.475Z,4.50
2023-01-04T07:34:27.948Z,4.50
2023-01-04T07:36:56.470Z,4.60
2023-01-04T07:39:24.579Z,4.60
2023-01-04T07:41:52.629Z,4.60
2023-01-04T07:44:26.793Z,4.70
2023-01-04T07:46:55.656Z,4.70
2023-01-04T07:49:23.972Z,4.70
2023-01-04T07:51:52.235Z,4.70
2023-01-04T07:54:25.577Z,4.80
2023-01-04T07:56:56.622Z,4.80
2023-01-04T07:59:24.778Z,4.80
2023-01-04T08:01:52.946Z,4.80
2023-01-04T08:04:28.269Z,4.90
2023-01-04T08:06:59.090Z,4.90
2023-01-04T08:09:27.019Z,5.00
2023-01-04T08:11:54.951Z,5.00
2023-01-04T08:14:22.927Z,5.00
2023-01-04T08:16:50.962Z,5.00
2023-01-04T08:19:21.566Z,5.00
2023-01-04T08:21:50.030Z,5.10
2023-01-04T08:24:20.381Z,5.10
2023-01-04T08:26:48.453Z,5.10
2023-01-04T08:29:16.574Z,5.10
2023-01-04T08:31:44.678Z,5.10
2023-01-04T08:34:15.189Z,5.20
2023-01-04T08:36:51.524Z,5.20
2023-01-04T08:39:20.082Z,5.20
2023-01-04T08:42:21.927Z,5.30
2023-01-04T08:44:42.909Z,5.30
2023-01-04T08:47:11.300Z,5.40
2023-01-04T08:49:39.925Z,5.40
2023-01-04T08:52:07.878Z,5.50
2023-01-04T08:54:36.039Z,5.50
2023-01-04T08:57:07.616Z,5.50
2023-01-04T08:59:35.876Z,5.60
2023-01-04T09:02:05.885Z,5.60
2023-01-04T09:04:34.521Z,5.70
2023-01-04T09:07:07.807Z,5.80
2023-01-04T09:09:38.657Z,5.80
2023-01-04T09:12:11.761Z,5.80
2023-01-04T09:14:40.330Z,5.90
2023-01-04T09:17:08.528Z,5.90
2023-01-04T09:19:42.810Z,6.00
2023-01-04T09:22:13.885Z,6.10
2023-01-04T09:24:49.663Z,6.20
2023-01-04T09:27:17.776Z,6.20
2023-01-04T09:29:45.924Z,6.30
2023-01-04T09:32:16.771Z,6.40
2023-01-04T09:34:45.578Z,6.50
2023-01-04T09:37:13.554Z,6.50
2023-01-04T09:39:53.492Z,6.60
2023-01-04T09:42:36.982Z,6.60
2023-01-04T09:45:27.124Z,6.70
2023-01-04T09:48:07.730Z,6.80
2023-01-04T09:51:13.561Z,6.80
2023-01-04T09:53:55.132Z,6.90
2023-01-04T09:56:41.539Z,6.90
2023-01-04T09:59:20.989Z,7.00
2023-01-04T10:02:11.731Z,7.10
2023-01-04T10:04:53.264Z,7.10
2023-01-04T10:07:33.661Z,7.30
2023-01-04T10:10:02.428Z,7.30
2023-01-04T10:13:10.579Z,7.40
2023-01-04T10:16:06.393Z,7.40
2023-01-04T10:19:59.765Z,7.40
2023-01-04T10:21:57.489Z,7.40
2023-01-04T10:24:53.856Z,7.40
2023-01-04T10:27:57.424Z,7.40
2023-01-04T10:31:40.925Z,7.40
2023-01-04T10:34:24.587Z,7.40
2023-01-04T10:37:03.587Z,7.50
2023-01-04T10:39:39.263Z,7.50
2023-01-04T10:42:35.579Z,7.50
2023-01-04T10:45:16.657Z,7.60
2023-01-04T10:47:56.783Z,7.60
2023-01-04T10:51:09.007Z,7.70
2023-01-04T10:53:49.655Z,7.70
2023-01-04T10:56:36.779Z,7.80
2023-01-04T10:59:22.916Z,7.80
2023-01-04T11:02:00.853Z,7.90
2023-01-04T11:04:37.876Z,7.90
2023-01-04T11:07:17.186Z,7.90
2023-01-04T11:09:51.258Z,7.90
2023-01-04T11:12:25.124Z,7.90
2023-01-04T11:14:54.205Z,7.90
2023-01-04T11:17:23.244Z,7.90
2023-01-04T11:19:51.513Z,8.00
2023-01-04T11:22:23.348Z,8.00
2023-01-04T11:28:03.317Z,8.00
2023-01-04T11:30:43.649Z,8.10
2023-01-04T11:33:18.509Z,8.10
2023-01-04T11:35:49.576Z,8.10
2023-01-04T11:38:19.507Z,8.10
2023-01-04T11:41:05.488Z,8.20
2023-01-04T11:43:36.470Z,8.20
2023-01-04T11:46:08.145Z,8.20
2023-01-04T11:48:44.667Z,8.30
2023-01-04T11:51:27.819Z,8.30
2023-01-04T11:54:02.296Z,8.30
2023-01-04T11:56:31.759Z,8.40
2023-01-04T11:59:24.534Z,8.40
2023-01-04T12:02:59.986Z,8.40
2023-01-04T12:05:30.062Z,8.50
2023-01-04T12:08:02.514Z,8.50
2023-01-04T12:10:30.591Z,8.50
2023-01-04T12:13:02.103Z,8.60
2023-01-04T12:15:49.371Z,8.60
2023-01-04T12:18:23.841Z,8.60
2023-01-04T12:20:51.794Z,8.70
2023-01-04T12:23:21.587Z,8.70
2023-01-04T12:25:52.572Z,8.80
2023-01-04T12:28:39.187Z,8.80
2023-01-04T12:31:22.093Z,8.90
2023-01-04T12:34:17.804Z,9.00
2023-01-04T12:36:52.024Z,9.10
2023-01-04T12:39:23.855Z,9.10
2023-01-04T12:42:04.782Z,9.20
2023-01-04T12:44:41.387Z,9.20
2023-01-04T12:47:40.123Z,9.20
2023-01-04T12:50:13.121Z,9.20
2023-01-04T12:53:19.534Z,9.20
2023-01-04T12:55:50.791Z,9.20
2023-01-04T13:01:28.812Z,9.30
2023-01-04T13:04:09.393Z,9.30
2023-01-04T13:06:48.153Z,9.30
2023-01-04T13:09:24.027Z,9.40
2023-01-04T13:12:16.874Z,9.30
2023-01-04T13:14:49.843Z,9.30
2023-01-04T13:17:23.620Z,9.30
2023-01-04T13:19:52.212Z,9.30
2023-01-04T13:22:30.001Z,9.30
2023-01-04T13:25:00.383Z,9.30
2023-01-04T13:27:29.205Z,9.30
2023-01-04T13:29:59.589Z,9.30
2023-01-04T13:32:35.604Z,9.30
2023-01-04T13:35:15.256Z,9.30
2023-01-04T13:37:53.144Z,9.40
2023-01-04T13:40:25.735Z,9.40
2023-01-04T13:43:18.580Z,9.30
2023-01-04T13:46:20.061Z,9.30
2023-01-04T13:48:52.273Z,9.30
2023-01-04T13:51:36.164Z,9.30
2023-01-04T13:54:19.484Z,9.40
2023-01-04T13:56:55.043Z,9.40
2023-01-04T13:59:23.628Z,9.40
2023-01-04T14:01:54.728Z,9.40
2023-01-04T14:04:28.602Z,9.40
2023-01-04T14:07:00.246Z,9.40
2023-01-04T14:09:31.654Z,9.40
2023-01-04T14:12:08.547Z,9.40
2023-01-04T14:15:02.014Z,9.40
2023-01-04T14:17:52.764Z,9.40
2023-01-04T14:20:20.763Z,9.40
2023-01-04T14:22:49.367Z,9.40
2023-01-04T14:25:35.551Z,9.40
2023-01-04T14:28:20.326Z,9.40
2023-01-04T14:30:54.460Z,9.40
2023-01-04T14:33:40.323Z,9.40
2023-01-04T14:36:08.733Z,9.40
2023-01-04T14:38:46.064Z,9.40
2023-01-04T14:41:22.155Z,9.40
2023-01-04T14:44:03.731Z,9.40
2023-01-04T14:46:32.689Z,9.40
2023-01-04T14:49:01.013Z,9.40
2023-01-04T14:51:34.365Z,9.40
2023-01-04T14:54:02.339Z,9.40
2023-01-04T14:56:30.260Z,9.40
2023-01-04T14:58:58.279Z,9.40
2023-01-04T15:01:26.797Z,9.40
2023-01-04T15:03:56.733Z,9.40
2023-01-04T15:06:24.992Z,9.40
2023-01-04T15:08:53.653Z,9.30
2023-01-04T15:11:21.658Z,9.30
2023-01-04T15:13:49.588Z,9.30
2023-01-04T15:16:19.660Z,9.20
2023-01-04T15:18:51.123Z,9.20
2023-01-04T15:21:22.347Z,9.10
2023-01-04T15:23:50.345Z,9.10
2023-01-04T15:26:18.384Z,9.00
2023-01-04T15:28:46.318Z,9.00
2023-01-04T15:31:22.437Z,8.90
2023-01-04T15:33:54.561Z,8.90
2023-01-04T15:36:24.258Z,8.90
2023-01-04T15:38:56.501Z,8.80
2023-01-04T15:41:43.172Z,8.80
2023-01-04T15:44:12.495Z,8.80
2023-01-04T15:46:40.871Z,8.80
2023-01-04T15:49:15.068Z,8.70
2023-01-04T15:51:45.254Z,8.80
2023-01-04T15:54:13.610Z,8.70
2023-01-04T15:56:41.609Z,8.70
2023-01-04T15:59:09.703Z,8.70
2023-01-04T16:01:37.724Z,8.70
2023-01-04T16:04:08.041Z,8.70
2023-01-04T16:06:35.972Z,8.70
2023-01-04T16:09:05.017Z,8.70
2023-01-04T16:11:33.175Z,8.70
2023-01-04T16:14:01.309Z,8.70
2023-01-04T16:16:30.049Z,8.70
2023-01-04T16:18:58.671Z,8.70
2023-01-04T16:21:29.516Z,8.70
2023-01-04T16:24:09.169Z,8.70
2023-01-04T16:26:48.569Z,8.70
2023-01-04T16:29:17.153Z,8.70
2023-01-04T16:31:46.465Z,8.70
2023-01-04T16:34:17.434Z,8.70
2023-01-04T16:36:55.819Z,8.70
2023-01-04T16:39:57.213Z,8.70
2023-01-04T16:42:12.066Z,8.70
2023-01-04T16:44:45.417Z,8.70
2023-01-04T16:47:13.984Z,8.70
2023-01-04T16:49:45.126Z,8.70
2023-01-04T16:52:17.280Z,8.70
2023-01-04T16:54:45.365Z,8.70
2023-01-04T16:57:13.797Z,8.70
2023-01-04T16:59:42.126Z,8.70
2023-01-04T17:02:12.326Z,8.70
2023-01-04T17:04:40.584Z,8.70
2023-01-04T17:07:09.375Z,8.70
2023-01-04T17:09:37.487Z,8.70
2023-01-04T17:15:40.653Z,8.70
2023-01-04T17:17:45.760Z,8.70
2023-01-04T17:20:13.721Z,8.80
2023-01-04T17:22:41.690Z,8.80
2023-01-04T17:25:09.901Z,8.80
2023-01-04T17:27:37.906Z,8.80
2023-01-04T17:30:08.433Z,8.80
2023-01-04T17:32:36.461Z,8.90
2023-01-04T17:35:06.394Z,8.90
2023-01-04T17:37:37.796Z,8.90
2023-01-04T17:40:05.894Z,8.90
2023-01-04T17:42:34.610Z,8.80
2023-01-04T17:45:02.544Z,8.80
2023-01-04T17:47:30.484Z,8.80
2023-01-04T17:49:58.448Z,8.90
2023-01-04T17:52:31.355Z,8.80
2023-01-04T17:54:59.764Z,8.80
2023-01-04T17:57:29.750Z,8.90
2023-01-04T17:59:57.719Z,8.90
2023-01-04T18:02:25.664Z,8.90
2023-01-04T18:04:54.033Z,8.90
2023-01-04T18:07:26.060Z,8.90
2023-01-04T18:09:54.513Z,9.00
2023-01-04T18:12:22.851Z,9.00
2023-01-04T18:14:51.160Z,9.00
2023-01-04T18:17:19.264Z,9.10
2023-01-04T18:19:47.363Z,9.00
2023-01-04T18:22:15.461Z,9.20
2023-01-04T18:24:43.333Z,9.30
2023-01-04T18:27:22.546Z,9.20
2023-01-04T18:29:52.496Z,9.20
2023-01-04T18:32:20.944Z,9.20
2023-01-04T18:34:48.970Z,9.20
2023-01-04T18:37:17.500Z,9.20
2023-01-04T18:39:45.467Z,9.20
2023-01-04T18:42:13.447Z,9.20
2023-01-04T18:44:47.924Z,9.20
2023-01-04T18:47:21.941Z,9.20
2023-01-04T18:49:50.893Z,9.20
2023-01-04T18:52:20.097Z,9.20
2023-01-04T18:54:49.471Z,9.30
2023-01-04T18:57:17.749Z,9.30
2023-01-04T18:59:45.696Z,9.30
2023-01-04T19:02:18.849Z,9.30
2023-01-04T19:04:47.284Z,9.30
2023-01-04T19:07:15.452Z,9.30
2023-01-04T19:09:43.883Z,9.30
2023-01-04T19:12:12.208Z,9.40
2023-01-04T19:14:40.296Z,9.40
2023-01-04T19:17:09.452Z,9.40
2023-01-04T19:19:38.135Z,9.40
2023-01-04T19:22:06.446Z,9.40
2023-01-04T19:24:34.386Z,9.40
2023-01-04T19:27:04.113Z,9.40
2023-01-04T19:29:33.337Z,9.40
2023-01-04T19:32:01.205Z,9.40
2023-01-04T19:34:29.695Z,9.50
2023-01-04T19:36:57.597Z,9.50
2023-01-04T19:39:25.552Z,9.50
2023-01-04T19:41:53.441Z,9.50
2023-01-04T19:44:21.634Z,9.50
2023-01-04T19:46:49.590Z,9.50
2023-01-04T19:49:18.363Z,9.50
2023-01-04T19:51:48.152Z,9.50
2023-01-04T19:54:21.697Z,9.50
2023-01-04T19:56:53.038Z,9.60
2023-01-04T19:59:21.151Z,9.60
2023-01-04T20:01:49.221Z,9.60
2023-01-04T20:04:17.389Z,9.60
2023-01-04T20:06:45.325Z,9.60
2023-01-04T20:09:13.362Z,9.60
2023-01-04T20:11:41.444Z,9.60
2023-01-04T20:14:09.348Z,9.60
2023-01-04T20:16:37.351Z,9.60
2023-01-04T20:19:05.328Z,9.60
2023-01-04T20:21:33.349Z,9.60
2023-01-04T20:24:04.752Z,9.60
2023-01-04T20:26:32.577Z,9.60
2023-01-04T20:29:01.492Z,9.60
2023-01-04T20:31:31.825Z,9.70
2023-01-04T20:34:00.030Z,9.70
2023-01-04T20:36:30.978Z,9.70
2023-01-04T20:39:00.583Z,9.70
2023-01-04T20:41:33.522Z,9.80
2023-01-04T20:44:03.107Z,9.80
2023-01-04T20:46:35.706Z,9.80
2023-01-04T20:49:03.934Z,9.80
2023-01-04T20:51:31.929Z,9.80
2023-01-04T20:54:02.752Z,9.90
2023-01-04T20:56:33.479Z,9.80
2023-01-04T20:59:01.366Z,9.90
2023-01-04T21:01:29.378Z,9.90
2023-01-04T21:03:57.725Z,9.90
2023-01-04T21:06:25.955Z,9.90
2023-01-04T21:08:55.814Z,9.90
2023-01-04T21:11:23.938Z,9.90
2023-01-04T21:13:53.060Z,9.90
2023-01-04T21:16:21.107Z,9.90
2023-01-04T21:18:49.026Z,9.90
2023-01-04T21:21:18.394Z,9.90
2023-01-04T21:23:53.030Z,9.90
2023-01-04T21:26:24.157Z,9.90
2023-01-04T21:28:52.094Z,9.80
2023-01-04T21:31:24.828Z,9.70
2023-01-04T21:33:54.459Z,9.70
2023-01-04T21:36:29.665Z,9.60
2023-01-04T21:38:59.525Z,9.60
2023-01-04T21:41:28.050Z,9.60
2023-01-04T21:43:58.699Z,9.60
2023-01-04T21:46:27.476Z,9.60
2023-01-04T21:48:57.447Z,9.60
2023-01-04T21:51:25.613Z,9.60
2023-01-04T21:53:53.805Z,9.60
2023-01-04T21:56:24.453Z,9.60
2023-01-04T21:58:52.785Z,9.60
2023-01-04T22:01:23.676Z,9.70
2023-01-04T22:03:52.174Z,9.70
2023-01-04T22:06:21.678Z,9.70
2023-01-04T22:08:49.995Z,9.70
2023-01-04T22:11:17.905Z,9.80
2023-01-04T22:13:46.191Z,9.80
2023-01-04T22:16:16.406Z,9.80
2023-01-04T22:18:50.960Z,9.80
2023-01-04T22:21:21.420Z,9.90
2023-01-04T22:23:49.417Z,9.90
2023-01-04T22:26:17.423Z,9.90
2023-01-04T22:28:45.511Z,9.90
2023-01-04T22:31:15.004Z,9.90
2023-01-04T22:33:43.587Z,10.00
2023-01-04T22:36:21.935Z,10.00
2023-01-04T22:38:55.921Z,10.10
2023-01-04T22:41:27.247Z,10.20
2023-01-04T22:44:04.487Z,10.10
2023-01-04T22:46:34.489Z,10.20
2023-01-04T22:49:03.436Z,10.30
2023-01-04T22:51:32.464Z,10.30
2023-01-04T22:54:02.882Z,10.30
2023-01-04T22:56:30.784Z,10.40
2023-01-04T22:58:59.541Z,10.40
2023-01-04T23:01:30.592Z,10.40
2023-01-04T23:04:00.689Z,10.30
2023-01-04T23:06:30.506Z,10.40
2023-01-04T23:09:09.014Z,10.40
2023-01-04T23:11:38.290Z,10.50
2023-01-04T23:14:07.765Z,10.50
2023-01-04T23:16:36.522Z,10.40
2023-01-04T23:19:06.743Z,10.50
2023-01-04T23:21:36.058Z,10.50
2023-01-04T23:24:04.770Z,10.50
2023-01-04T23:26:33.726Z,10.50
2023-01-04T23:29:04.779Z,10.50
2023-01-04T23:31:35.868Z,10.50
2023-01-04T23:34:06.230Z,10.40
2023-01-04T23:36:39.138Z,10.40
2023-01-04T23:39:16.814Z,10.40
2023-01-04T23:41:48.283Z,10.50
2023-01-04T23:44:17.609Z,10.50
2023-01-04T23:46:46.384Z,10.50
2023-01-04T23:49:14.790Z,10.50
2023-01-04T23:51:43.693Z,10.50
2023-01-04T23:54:11.776Z,10.50
2023-01-04T23:56:40.291Z,10.50
2023-01-04T23:59:09.099Z,10.50
